Home > Products > Valid Products > MTR

000
SAUS45 KPIH 231352
MTRSNT
METAR KSNT 231351Z AUTO 00000KT M06/M10 A3013 RMK AO1 SLP204
T10611100





000
SAUS45 KPIH 231252
MTRSNT
METAR KSNT 231251Z AUTO 00000KT M07/M11 A3011 RMK AO1 SLP198
T10671106





000
SAUS45 KPIH 231152
MTRSNT
METAR KSNT 231151Z AUTO 00000KT M08/M12 A3008 RMK AO1 SLP192 70028
T10781117 11028 21094 51027





000
SAUS45 KPIH 231052
MTRSNT
METAR KSNT 231051Z AUTO 00000KT M07/M12 A3005 RMK AO1 SLP177
T10721117





000
SAUS45 KPIH 230952
MTRSNT
METAR KSNT 230951Z AUTO VRB03KT M06/M10 A3003 RMK AO1 SLP158
T10561100





000
SAUS45 KPIH 230952
MTRSNT
METAR KSNT 230951Z AUTO VRB03KT M06/M10 A3003 RMK AO1 SLP158
T10561100





000
SAUS45 KPIH 230852
MTRSNT
METAR KSNT 230851Z AUTO 35008KT M05/M10 A2998 RMK AO1 SLP143
T10501100 53032





000
SAUS45 KPIH 230753
MTRSNT
METAR KSNT 230751Z AUTO 34010KT M03/M09 A2995 RMK AO1 SLP127
T10281089





000
SAUS45 KPIH 230652
MTRSNT
METAR KSNT 230651Z AUTO 33005KT M03/M07 A2990 RMK AO1 SLP108
T10331072 400331039





000
SAUS45 KPIH 230552
MTRSNT
METAR KSNT 230551Z AUTO 00000KT M03/M06 A2987 RMK AO1 SLP094 P0001
60007 T10331056 11011 21033 52018





000
SAUS45 KPIH 230452
MTRSNT
METAR KSNT 230451Z AUTO 26004KT M03/M05 A2984 RMK AO1 SLP088
T10281050





000
SAUS45 KPIH 230352
MTRSNT
METAR KSNT 230351Z AUTO 00000KT M03/M05 A2982 RMK AO1 SLP079 P0005
T10281050





000
SAUS45 KPIH 230252
MTRSNT
METAR KSNT 230251Z AUTO 01004KT M03/M04 A2980 RMK AO1 SLP070 P0001
60001 T10281044 53010





000
SAUS45 KPIH 230152
MTRSNT
METAR KSNT 230151Z AUTO VRB05KT M01/M07 A2977 RMK AO1 SLP057
T10111072





000
SAUS45 KPIH 230052
MTRSNT
METAR KSNT 230051Z AUTO 00000KT M02/M06 A2978 RMK AO1 SLP062
T10171056





000
SAUS45 KPIH 222352
MTRSNT
METAR KSNT 222351Z AUTO 00000KT M01/M06 A2976 RMK AO1 SLP054 60003
T10111061 10028 21011 51017





000
SAUS45 KPIH 222252
MTRSNT
METAR KSNT 222251Z AUTO 31004KT 00/M08 A2975 RMK AO1 SLP049
T00001083





000
SAUS45 KPIH 222152
MTRSNT
METAR KSNT 222151Z AUTO 33004KT 02/M08 A2972 RMK AO1 SLP034
T00221083





000
SAUS45 KPIH 222152
MTRSNT
METAR KSNT 222151Z AUTO 33004KT 02/M08 A2972 RMK AO1 SLP034
T00221083





000
SAUS45 KPIH 222052
MTRSNT
METAR KSNT 222051Z AUTO 33005KT 02/M07 A2970 RMK AO1 SLP028 60003
T00171067 53008





000
SAUS45 KPIH 221952
MTRSNT
METAR KSNT 221951Z AUTO 02003KT 01/M03 A2968 RMK AO1 SLP021 P0002
T00061028





000
SAUS45 KPIH 221852
MTRSNT
METAR KSNT 221851Z AUTO 23005G15KT 02/M03 A2967 RMK AO1 SLP013 P0001
T00171028





000
SAUS45 KPIH 221752
MTRSNT
METAR KSNT 221751Z AUTO 29011G21KT 03/M04 A2968 RMK AO1 SLP015 P0001
60018 T00281039 10033 20017 53014





000
SAUS45 KPIH 221652
MTRSNT
METAR KSNT 221651Z AUTO 02/M01 A2966 RMK AO1 SLP012 P0001 T00171011





000
SAUS45 KPIH 221552
MTRSNT
METAR KSNT 221551Z AUTO VRB06KT 03/M01 A2963 RMK AO1 SLP995 P0002
T00281006





000
SAUS45 KPIH 221552
MTRSNT
METAR KSNT 221551Z AUTO VRB06KT 03/M01 A2963 RMK AO1 SLP995 P0002
T00281006





000
SAUS45 KPIH 221452
MTRSNT
METAR KSNT 221451Z AUTO 00000KT 02/00 A2963 RMK AO1 SLP998 P0005
60014 T00220000 55006





000
SAUS45 KPIH 221352
MTRSNT
METAR KSNT 221351Z AUTO 14007KT 02/00 A2962 RMK AO1 SLP997 P0004
T00220000





000
SAUS45 KPIH 221252
MTRSNT
METAR KSNT 221251Z AUTO 15012KT 02/00 A2963 RMK AO1 SLP008 P0005
T00170000





000
SAUS45 KPIH 221152
MTRSNT
METAR KSNT 221151Z AUTO 16010G17KT 02/M01 A2965 RMK AO1 SLP013 P0007
60029 70030 T00171006 10028 20011 58021





000
SAUS45 KPIH 221052
MTRSNT
METAR KSNT 221051Z AUTO 15015G22KT 01/M01 A2969 RMK AO1 PK WND
16027/1014 SLP023 P0013 T00111006





000
SAUS45 KPIH 220952
MTRSNT
METAR KSNT 220951Z AUTO 14013G25KT 01/M01 A2971 RMK AO1 SLP029 P0006
T00111006





000
SAUS45 KPIH 220852
MTRSNT
METAR KSNT 220851Z AUTO 13011G21KT 01/M01 A2972 RMK AO1 SLP035 P0002
60003 T00111011 56020





000
SAUS45 KPIH 220752
MTRSNT
METAR KSNT 220751Z AUTO 14014G21KT 02/M02 A2974 RMK AO1 SLP045 P0001
T00221022





000
SAUS45 KPIH 220652
MTRSNT
METAR KSNT 220651Z AUTO 13012G21KT 03/M03 A2977 RMK AO1 SLP061
T00281028 400331089





000
SAUS45 KPIH 220552
MTRSNT
METAR KSNT 220551Z AUTO 15013G23KT 02/M02 A2979 RMK AO1 SLP074 60001
T00171017 10028 21017 58016





000
SAUS45 KPIH 220452
MTRSNT
METAR KSNT 220451Z AUTO 15010G19KT 130V190 02/M01 A2982 RMK AO1
SLP085 P0001 T00171011





000
SAUS45 KPIH 220352
MTRSNT
METAR KSNT 220351Z AUTO 16008G16KT 03/M03 A2984 RMK AO1 SLP092
T00281033





000
SAUS45 KPIH 220252
MTRSNT
METAR KSNT 220251Z AUTO 15006KT 02/M04 A2985 RMK AO1 SLP099
T00221044 56013





000
SAUS45 KPIH 220152
MTRSNT
METAR KSNT 220151Z AUTO 16008KT 02/M05 A2986 RMK AO1 SLP102
T00221050





000
SAUS45 KPIH 220052
MTRSNT
METAR KSNT 220051Z AUTO 12004KT M01/M05 A2988 RMK AO1 SLP118
T10111050





000
SAUS45 KPIH 212352
MTRSNT
METAR KSNT 212351Z AUTO 17004KT M01/M04 A2990 RMK AO1 SLP128
T10061044 10033 21044 56011





000
SAUS45 KPIH 212252
MTRSNT
METAR KSNT 212251Z AUTO 00000KT 02/M03 A2990 RMK AO1 SLP124
T00171028





000
SAUS45 KPIH 212152
MTRSNT
METAR KSNT 212151Z AUTO 00000KT 02/M03 A2992 RMK AO1 SLP124
T00221033





000
SAUS45 KPIH 212152
MTRSNT
METAR KSNT 212151Z AUTO 00000KT 02/M03 A2992 RMK AO1 SLP124
T00221033





000
SAUS45 KPIH 212052
MTRSNT
METAR KSNT 212051Z AUTO 00000KT 02/M04 A2994 RMK AO1 SLP130
T00171039 58015





000
SAUS45 KPIH 211952
MTRSNT
METAR KSNT 211951Z AUTO 00000KT M02/M05 A2997 RMK AO1 SLP150
T10171050





000
SAUS45 KPIH 211852
MTRSNT
METAR KSNT 211851Z AUTO 00000KT M03/M06 A2997 RMK AO1 SLP155
T10281056





000
SAUS45 KPIH 211752
MTRSNT
METAR KSNT 211751Z AUTO 07003KT M04/M07 A2999 RMK AO1 SLP167
T10441067 11039 21083 58003





000
SAUS45 KPIH 211652
MTRSNT
METAR KSNT 211651Z AUTO 00000KT M04/M07 A3001 RMK AO1 SLP169
T10441067





000
SAUS45 KPIH 211552
MTRSNT
METAR KSNT 211551Z AUTO 00000KT M06/M08 A3001 RMK AO1 SLP173
T10611083





000
SAUS45 KPIH 211552
MTRSNT
METAR KSNT 211551Z AUTO 00000KT M06/M08 A3001 RMK AO1 SLP173
T10611083





000
SAUS45 KPIH 211452
MTRSNT
METAR KSNT 211451Z AUTO 00000KT M07/M09 A3000 RMK AO1 SLP177
T10671089 55003





000
SAUS45 KPIH 211352
MTRSNT
METAR KSNT 211351Z AUTO 11003KT M07/M09 A3000 RMK AO1 SLP169
T10671094





000
SAUS45 KPIH 211252
MTRSNT
METAR KSNT 211251Z AUTO 00000KT M07/M09 A3000 RMK AO1 SLP165
T10721094





000
SAUS45 KPIH 211152
MTRSNT
METAR KSNT 211151Z AUTO 04003KT M08/M11 A3001 RMK AO1 SLP174
T10831106 11056 21089 53001





000
SAUS45 KPIH 211052
MTRSNT
METAR KSNT 211051Z AUTO 00000KT M08/M11 A2999 RMK AO1 SLP154
T10831106





000
SAUS45 KPIH 210952
MTRSNT
METAR KSNT 210951Z AUTO 00000KT M07/M09 A3000 RMK AO1 SLP154
T10671089





000
SAUS45 KPIH 210852
MTRSNT
METAR KSNT 210851Z AUTO 00000KT M07/M08 A3001 RMK AO1 SLP158
T10671083 58002





000
SAUS45 KPIH 210752
MTRSNT
METAR KSNT 210751Z AUTO 00000KT M07/M08 A3002 RMK AO1 SLP169
T10671083





000
SAUS45 KPIH 210652
MTRSNT
METAR KSNT 210651Z AUTO 00000KT M07/M09 A3002 RMK AO1 SLP174
T10671089 400331106





000
SAUS45 KPIH 210552
MTRSNT
METAR KSNT 210551Z AUTO 00000KT M07/M10 A3002 RMK AO1 SLP176
T10721100 11022 21083 56002





000
SAUS45 KPIH 210452
MTRSNT
METAR KSNT 210451Z AUTO 00000KT M05/M07 A3002 RMK AO1 SLP176
T10501072





000
SAUS45 KPIH 210352
MTRSNT
METAR KSNT 210351Z AUTO 00000KT M05/M08 A3001 RMK AO1 SLP175
T10501078





000
SAUS45 KPIH 210352
MTRSNT
METAR KSNT 210351Z AUTO 00000KT M05/M08 A3001 RMK AO1 SLP175
T10501078





000
SAUS45 KPIH 210252
MTRSNT
METAR KSNT 210251Z AUTO 18003KT M07/M09 A3002 RMK AO1 SLP188
T10671094 53001





000
SAUS45 KPIH 210152
MTRSNT
METAR KSNT 210151Z AUTO 00000KT M05/M07 A3001 RMK AO1 SLP184
T10501072





000
SAUS45 KPIH 210052
MTRSNT
METAR KSNT 210051Z AUTO 00000KT M02/M06 A3002 RMK AO1 SLP176
T10221061





000
SAUS45 KPIH 202352
MTRSNT
METAR KSNT 202351Z AUTO 18003KT M03/M07 A3002 RMK AO1 SLP180
T10331067 10033 21044 55004





000
SAUS45 KPIH 202252
MTRSNT
METAR KSNT 202251Z AUTO 00000KT 02/M03 A3001 RMK AO1 SLP166
T00171033





000
SAUS45 KPIH 202152
MTRSNT
METAR KSNT 202151Z AUTO 00000KT 02/M04 A3003 RMK AO1 SLP171
T00171044





000
SAUS45 KPIH 202052
MTRSNT
METAR KSNT 202051Z AUTO 33003KT 01/M06 A3004 RMK AO1 SLP174
T00111061 56014





000
SAUS45 KPIH 201952
MTRSNT
METAR KSNT 201951Z AUTO 00000KT M01/M06 A3004 RMK AO1 SLP183
T10111061





000
SAUS45 KPIH 201852
MTRSNT
METAR KSNT 201851Z AUTO 00000KT M04/M08 A3006 RMK AO1 SLP190
T10391078





000
SAUS45 KPIH 201752
MTRSNT
METAR KSNT 201751Z AUTO 00000KT M04/M08 A3008 RMK AO1 SLP200
T10441078 11044 21094 53002





000
SAUS45 KPIH 201652
MTRSNT
METAR KSNT 201651Z AUTO 07003KT M06/M09 A3008 RMK AO1 SLP200
T10611089





000
SAUS45 KPIH 201555 COR
MTRSNT
METAR KSNT 201551Z AUTO 00000KT M07/M10 A3007 RMK AO1 SLP199
T10671100





    US Dept of Commerce
    National Oceanic and Atmospheric Administration
    National Weather Service
    1325 East West Highway
    Silver Spring, MD 20910
    Page Author: NWS Internet Services Team
Disclaimer
Information Quality
Credits
Glossary
Privacy Policy
Freedom of Information Act (FOIA)
About Us
Career Opportunities